createdAt,value
2022-08-16T00:06:15.615Z,3.00
2022-08-16T00:08:42.120Z,3.10
2022-08-16T00:11:15.362Z,3.00
2022-08-16T00:13:43.229Z,2.90
2022-08-16T00:17:00.988Z,3.10
2022-08-16T00:19:06.291Z,3.08
2022-08-16T00:21:33.377Z,3.00
2022-08-16T00:24:00.179Z,3.20
2022-08-16T00:26:35.510Z,3.38
2022-08-16T00:29:16.037Z,3.03
2022-08-16T00:32:01.017Z,2.72
2022-08-16T00:34:43.744Z,2.72
2022-08-16T00:37:20.495Z,3.08
2022-08-16T00:39:58.631Z,3.40
2022-08-16T00:42:31.701Z,2.90
2022-08-16T00:45:36.532Z,3.20
2022-08-16T00:48:28.672Z,3.03
2022-08-16T00:50:55.554Z,3.00
2022-08-16T00:53:22.933Z,2.80
2022-08-16T00:55:52.776Z,3.35
2022-08-16T00:58:34.650Z,2.88
2022-08-16T01:01:02.823Z,3.08
2022-08-16T01:03:31.685Z,2.95
2022-08-16T01:06:40.460Z,3.40
2022-08-16T01:08:52.171Z,3.28
2022-08-16T01:11:19.586Z,3.10
2022-08-16T01:13:47.092Z,3.20
2022-08-16T01:16:20.901Z,3.00
2022-08-16T01:18:59.353Z,2.88
2022-08-16T01:21:33.720Z,2.90
2022-08-16T01:24:44.578Z,3.17
2022-08-16T01:27:44.639Z,3.40
2022-08-16T01:30:26.220Z,3.22
2022-08-16T01:33:02.030Z,3.10
2022-08-16T01:35:44.724Z,3.10
2022-08-16T01:38:36.010Z,2.90
2022-08-16T01:41:08.032Z,3.20
2022-08-16T01:43:37.034Z,3.38
2022-08-16T01:46:30.103Z,3.03
2022-08-16T01:49:12.199Z,3.45
2022-08-16T01:51:43.670Z,3.50
2022-08-16T01:54:13.250Z,3.60
2022-08-16T01:56:42.037Z,3.88
2022-08-16T01:59:15.720Z,3.75
2022-08-16T02:01:44.492Z,3.38
2022-08-16T02:04:48.746Z,3.78
2022-08-16T02:07:11.180Z,3.75
2022-08-16T02:09:38.933Z,3.53
2022-08-16T02:12:43.612Z,3.78
2022-08-16T02:14:53.610Z,3.90
2022-08-16T02:17:20.203Z,4.05
2022-08-16T02:19:58.970Z,3.78
2022-08-16T02:22:35.733Z,3.72
2022-08-16T02:25:14.669Z,3.50
2022-08-16T02:27:43.888Z,3.47
2022-08-16T02:30:37.014Z,3.72
2022-08-16T02:33:07.519Z,3.15
2022-08-16T02:35:35.144Z,3.53
2022-08-16T02:38:21.366Z,3.33
2022-08-16T02:40:48.340Z,3.67
2022-08-16T02:43:16.044Z,3.80
2022-08-16T02:45:42.613Z,3.75
2022-08-16T02:48:29.868Z,3.28
2022-08-16T02:51:06.359Z,3.40
2022-08-16T02:53:40.205Z,3.38
2022-08-16T02:56:09.894Z,3.30
2022-08-16T02:58:37.055Z,3.42
2022-08-16T03:01:03.763Z,3.08
2022-08-16T03:04:39.498Z,3.20
2022-08-16T03:06:39.057Z,3.10
2022-08-16T03:09:13.062Z,3.00
2022-08-16T03:11:41.085Z,3.10
2022-08-16T03:14:08.476Z,3.00
2022-08-16T03:16:39.021Z,3.22
2022-08-16T03:19:09.387Z,3.10
2022-08-16T03:21:37.382Z,3.40
2022-08-16T03:24:06.086Z,3.55
2022-08-16T03:26:52.626Z,3.30
2022-08-16T03:29:19.129Z,3.60
2022-08-16T03:31:45.663Z,3.17
2022-08-16T03:34:19.170Z,3.40
2022-08-16T03:36:47.389Z,3.22
2022-08-16T03:39:15.077Z,3.05
2022-08-16T03:41:50.043Z,3.42
2022-08-16T03:44:43.635Z,3.05
2022-08-16T03:47:04.068Z,3.20
2022-08-16T03:49:36.700Z,3.50
2022-08-16T03:52:04.148Z,3.45
2022-08-16T03:54:30.687Z,3.63
2022-08-16T03:56:58.597Z,3.90
2022-08-16T03:59:25.708Z,3.75
2022-08-16T04:01:56.225Z,3.80
2022-08-16T04:04:25.094Z,3.47
2022-08-16T04:07:03.390Z,3.65
2022-08-16T04:09:35.543Z,3.40
2022-08-16T04:12:11.159Z,3.33
2022-08-16T04:14:51.691Z,3.17
2022-08-16T04:17:18.431Z,3.58
2022-08-16T04:19:46.704Z,3.38
2022-08-16T04:22:13.765Z,3.10
2022-08-16T04:24:54.187Z,3.10
2022-08-16T04:27:21.306Z,2.90
2022-08-16T04:29:47.883Z,3.40
2022-08-16T04:32:19.617Z,3.00
2022-08-16T04:34:46.927Z,3.10
2022-08-16T04:37:14.276Z,3.03
2022-08-16T04:39:46.701Z,3.38
2022-08-16T04:44:54.140Z,2.90
2022-08-16T04:47:24.736Z,3.28
2022-08-16T04:49:52.753Z,3.20
2022-08-16T04:52:32.641Z,3.40
2022-08-16T04:55:37.644Z,3.10
2022-08-16T04:58:44.946Z,3.17
2022-08-16T05:00:52.873Z,3.00
2022-08-16T05:03:19.666Z,2.88
2022-08-16T05:05:59.499Z,3.20
2022-08-16T05:08:31.751Z,3.28
2022-08-16T05:11:05.414Z,3.05
2022-08-16T05:13:41.050Z,2.88
2022-08-16T05:16:30.298Z,3.20
2022-08-16T05:18:59.516Z,3.00
2022-08-16T05:21:28.384Z,3.25
2022-08-16T05:24:06.076Z,2.90
2022-08-16T05:26:34.513Z,2.90
2022-08-16T05:29:04.428Z,2.80
2022-08-16T05:31:31.565Z,3.05
2022-08-16T05:34:00.086Z,3.25
2022-08-16T05:36:33.757Z,2.90
2022-08-16T05:39:08.867Z,2.97
2022-08-16T05:41:44.613Z,2.88
2022-08-16T05:44:23.415Z,3.10
2022-08-16T05:46:57.700Z,2.83
2022-08-16T05:49:38.219Z,2.63
2022-08-16T05:52:11.495Z,3.20
2022-08-16T05:54:46.568Z,3.10
2022-08-16T05:57:14.471Z,2.90
2022-08-16T05:59:41.812Z,2.90
2022-08-16T06:02:08.493Z,3.00
2022-08-16T06:04:37.550Z,2.80
2022-08-16T06:07:08.743Z,3.03
2022-08-16T06:09:43.324Z,3.00
2022-08-16T06:12:27.005Z,3.00
2022-08-16T06:15:07.732Z,2.75
2022-08-16T06:17:42.609Z,2.80
2022-08-16T06:20:23.167Z,3.00
2022-08-16T06:22:57.784Z,3.03
2022-08-16T06:25:35.816Z,3.13
2022-08-16T06:28:08.619Z,2.90
2022-08-16T06:30:43.954Z,3.00
2022-08-16T06:33:22.326Z,2.63
2022-08-16T06:35:50.807Z,3.28
2022-08-16T06:38:33.413Z,3.92
2022-08-16T06:41:04.021Z,3.22
2022-08-16T06:43:31.153Z,2.92
2022-08-16T06:45:59.944Z,3.00
2022-08-16T06:48:32.674Z,2.90
2022-08-16T06:51:09.104Z,2.90
2022-08-16T06:53:36.729Z,3.08
2022-08-16T06:56:14.536Z,2.67
2022-08-16T06:58:49.769Z,2.80
2022-08-16T07:01:17.624Z,2.92
2022-08-16T07:03:54.922Z,2.57
2022-08-16T07:06:26.506Z,2.80
2022-08-16T07:08:54.135Z,2.78
2022-08-16T07:11:20.876Z,4.05
2022-08-16T07:14:26.274Z,3.45
2022-08-16T07:16:58.104Z,3.50
2022-08-16T07:20:01.684Z,3.20
2022-08-16T07:22:37.834Z,3.05
2022-08-16T07:24:59.440Z,3.22
2022-08-16T07:27:26.015Z,2.97
2022-08-16T07:29:55.624Z,2.83
2022-08-16T07:32:29.234Z,3.03
2022-08-16T07:34:56.327Z,2.60
2022-08-16T07:37:23.256Z,2.60
2022-08-16T07:39:50.785Z,2.72
2022-08-16T07:42:25.838Z,2.50
2022-08-16T07:44:55.359Z,3.05
2022-08-16T07:47:24.712Z,2.65
2022-08-16T07:49:59.418Z,2.85
2022-08-16T07:52:29.816Z,2.97
2022-08-16T07:54:57.609Z,3.63
2022-08-16T07:57:24.670Z,3.45
2022-08-16T07:59:51.457Z,2.85
2022-08-16T08:02:19.762Z,3.55
2022-08-16T08:04:48.095Z,3.00
2022-08-16T08:07:16.194Z,3.78
2022-08-16T08:09:43.882Z,3.17
2022-08-16T08:12:31.963Z,3.45
2022-08-16T08:14:58.422Z,3.70
2022-08-16T08:17:25.259Z,3.72
2022-08-16T08:20:12.329Z,3.97
2022-08-16T08:22:39.441Z,4.03
2022-08-16T08:25:07.323Z,4.20
2022-08-16T08:27:35.132Z,3.70
2022-08-16T08:30:49.238Z,3.78
2022-08-16T08:32:58.022Z,3.65
2022-08-16T08:35:28.391Z,3.78
2022-08-16T08:37:56.497Z,4.57
2022-08-16T08:40:27.410Z,4.03
2022-08-16T08:43:00.623Z,4.07
2022-08-16T08:45:53.654Z,3.90
2022-08-16T08:48:33.863Z,3.60
2022-08-16T08:51:05.582Z,5.72
2022-08-16T08:53:36.211Z,4.80
2022-08-16T08:56:23.123Z,5.25
2022-08-16T08:58:54.950Z,4.95
2022-08-16T09:01:36.460Z,4.88
2022-08-16T09:04:09.401Z,4.90
2022-08-16T09:06:43.744Z,5.40
2022-08-16T09:09:16.536Z,4.50
2022-08-16T09:11:47.311Z,4.00
2022-08-16T09:14:23.868Z,3.88
2022-08-16T09:17:02.292Z,3.90
2022-08-16T09:19:32.003Z,3.33
2022-08-16T09:22:00.326Z,2.97
2022-08-16T09:24:46.955Z,3.38
2022-08-16T09:27:13.447Z,3.50
2022-08-16T09:29:44.378Z,3.22
2022-08-16T09:32:12.326Z,3.60
2022-08-16T09:34:38.941Z,3.38
2022-08-16T09:37:17.739Z,3.70
2022-08-16T09:39:50.098Z,2.80
2022-08-16T09:42:19.062Z,3.72
2022-08-16T09:45:11.226Z,3.55
2022-08-16T09:47:56.940Z,3.28
2022-08-16T09:50:22.717Z,2.92
2022-08-16T09:52:50.021Z,3.28
2022-08-16T09:55:16.712Z,2.72
2022-08-16T09:57:43.450Z,2.70
2022-08-16T10:00:44.809Z,2.35
2022-08-16T10:03:06.297Z,2.70
2022-08-16T10:05:37.896Z,2.60
2022-08-16T10:08:26.088Z,3.05
2022-08-16T10:11:10.960Z,2.85
2022-08-16T10:13:39.599Z,2.63
2022-08-16T10:18:48.286Z,2.83
2022-08-16T10:21:25.677Z,2.63
2022-08-16T10:23:56.145Z,2.78
2022-08-16T10:27:17.213Z,2.78
2022-08-16T10:29:13.655Z,2.50
2022-08-16T10:31:53.461Z,2.50
2022-08-16T10:34:31.773Z,2.50
2022-08-16T10:37:00.750Z,2.45
2022-08-16T10:39:40.854Z,2.28
2022-08-16T10:42:10.296Z,2.60
2022-08-16T10:47:09.985Z,2.53
2022-08-16T10:49:39.270Z,2.60
2022-08-16T10:52:18.838Z,2.50
2022-08-16T10:57:33.008Z,2.90
2022-08-16T10:59:59.979Z,2.70
2022-08-16T11:02:58.779Z,2.80
2022-08-16T11:05:16.356Z,2.67
2022-08-16T11:07:52.382Z,3.03
2022-08-16T11:19:05.766Z,2.60
2022-08-16T11:22:39.691Z,2.28
2022-08-16T11:24:41.392Z,2.50
2022-08-16T11:27:23.301Z,2.47
2022-08-16T11:29:54.831Z,2.45
2022-08-16T11:35:15.702Z,2.20
2022-08-16T11:40:40.867Z,2.00
2022-08-16T11:43:10.944Z,2.15
2022-08-16T11:45:37.720Z,2.08
2022-08-16T11:48:05.839Z,1.80
2022-08-16T11:50:33.806Z,2.10
2022-08-16T11:53:02.475Z,2.15
2022-08-16T11:55:31.227Z,1.90
2022-08-16T11:57:57.839Z,2.15
2022-08-16T12:00:33.539Z,2.00
2022-08-16T12:03:14.952Z,2.03
2022-08-16T12:05:43.965Z,2.25
2022-08-16T12:08:11.106Z,1.90
2022-08-16T12:10:40.700Z,2.42
2022-08-16T12:13:10.548Z,1.92
2022-08-16T12:15:37.204Z,1.80
2022-08-16T12:18:04.676Z,1.90
2022-08-16T12:20:35.663Z,2.00
2022-08-16T12:23:02.673Z,2.00
2022-08-16T12:25:32.094Z,2.08
2022-08-16T12:27:59.035Z,1.90
2022-08-16T12:30:33.673Z,1.80
2022-08-16T12:33:05.510Z,2.10
2022-08-16T12:35:38.247Z,1.90
2022-08-16T12:38:38.169Z,2.00
2022-08-16T12:40:56.985Z,1.90
2022-08-16T12:43:24.283Z,2.20
2022-08-16T12:45:53.155Z,1.95
2022-08-16T12:48:42.389Z,2.00
2022-08-16T12:51:19.681Z,2.10
2022-08-16T12:53:47.247Z,2.40
2022-08-16T12:56:14.252Z,2.00
2022-08-16T12:58:48.614Z,1.83
2022-08-16T13:01:19.530Z,1.88
2022-08-16T13:03:50.212Z,1.88
2022-08-16T13:06:29.883Z,2.20
2022-08-16T13:09:02.452Z,2.10
2022-08-16T13:11:35.614Z,2.17
2022-08-16T13:14:05.286Z,2.20
2022-08-16T13:16:31.965Z,1.95
2022-08-16T13:19:00.752Z,2.00
2022-08-16T13:21:27.310Z,1.83
2022-08-16T13:23:55.440Z,2.00
2022-08-16T13:26:23.753Z,2.03
2022-08-16T13:28:50.347Z,1.88
2022-08-16T13:31:17.104Z,2.00
2022-08-16T13:33:43.924Z,1.83
2022-08-16T13:36:21.254Z,2.25
2022-08-16T13:38:59.568Z,2.08
2022-08-16T13:41:30.261Z,1.98
2022-08-16T13:43:59.294Z,1.73
2022-08-16T13:46:26.534Z,1.80
2022-08-16T13:48:53.065Z,2.13
2022-08-16T13:51:20.690Z,1.70
2022-08-16T13:53:54.572Z,2.00
2022-08-16T13:56:37.727Z,1.95
2022-08-16T13:59:19.143Z,1.60
2022-08-16T14:01:55.389Z,1.80
2022-08-16T14:04:26.532Z,2.05
2022-08-16T14:06:53.281Z,1.63
2022-08-16T14:09:21.421Z,1.88
2022-08-16T14:11:49.572Z,1.70
2022-08-16T14:14:28.840Z,1.67
2022-08-16T14:17:01.022Z,1.60
2022-08-16T14:19:29.430Z,1.52
2022-08-16T14:22:15.491Z,1.83
2022-08-16T14:24:47.038Z,1.83
2022-08-16T14:27:15.722Z,1.73
2022-08-16T14:29:43.560Z,1.60
2022-08-16T14:32:13.099Z,1.75
2022-08-16T14:34:58.557Z,1.60
2022-08-16T14:37:25.522Z,1.45
2022-08-16T14:39:54.887Z,1.45
2022-08-16T14:42:23.235Z,1.40
2022-08-16T14:44:50.526Z,1.58
2022-08-16T14:47:17.439Z,1.70
2022-08-16T14:49:44.131Z,1.52
2022-08-16T14:52:20.344Z,1.60
2022-08-16T14:55:02.238Z,1.70
2022-08-16T14:57:28.918Z,1.80
2022-08-16T14:59:55.430Z,1.70
2022-08-16T15:02:34.474Z,1.80
2022-08-16T15:05:04.359Z,2.00
2022-08-16T15:07:35.024Z,1.80
2022-08-16T15:10:03.439Z,1.88
2022-08-16T15:12:33.601Z,1.65
2022-08-16T15:15:04.597Z,2.03
2022-08-16T15:17:40.696Z,2.22
2022-08-16T15:20:08.719Z,1.67
2022-08-16T15:22:39.273Z,1.77
2022-08-16T15:25:09.754Z,1.80
2022-08-16T15:27:36.779Z,1.80
2022-08-16T15:30:56.921Z,1.77
2022-08-16T15:32:57.257Z,1.90
2022-08-16T15:35:24.387Z,1.90
2022-08-16T15:37:54.385Z,1.77
2022-08-16T15:40:32.305Z,1.53
2022-08-16T15:43:02.571Z,1.73
2022-08-16T15:45:47.837Z,1.80
2022-08-16T15:48:28.479Z,1.98
2022-08-16T15:50:57.862Z,1.92
2022-08-16T15:53:27.344Z,2.15
2022-08-16T15:55:56.649Z,2.17
2022-08-16T15:58:35.167Z,1.85
2022-08-16T16:01:06.868Z,1.70
2022-08-16T16:03:34.690Z,2.03
2022-08-16T16:06:03.088Z,1.90
2022-08-16T16:08:35.442Z,1.98
2022-08-16T16:11:07.013Z,1.83
2022-08-16T16:13:34.695Z,1.70
2022-08-16T16:16:03.504Z,1.90
2022-08-16T16:18:34.353Z,2.20
2022-08-16T16:21:06.152Z,1.90
2022-08-16T16:23:41.040Z,2.13
2022-08-16T16:26:12.581Z,2.05
2022-08-16T16:29:05.738Z,1.90
2022-08-16T16:31:27.256Z,1.90
2022-08-16T16:33:56.968Z,2.10
2022-08-16T16:36:28.720Z,2.13
2022-08-16T16:38:56.490Z,2.10
2022-08-16T16:41:26.533Z,2.00
2022-08-16T16:43:54.082Z,2.00
2022-08-16T16:46:40.600Z,1.98
2022-08-16T16:49:11.548Z,1.95
2022-08-16T16:51:40.857Z,2.53
2022-08-16T16:54:09.315Z,2.00
2022-08-16T16:56:39.363Z,2.10
2022-08-16T16:59:13.594Z,2.25
2022-08-16T17:01:59.562Z,2.30
2022-08-16T17:04:32.320Z,2.30
2022-08-16T17:07:01.157Z,2.10
2022-08-16T17:09:27.919Z,2.30
2022-08-16T17:11:55.893Z,2.10
2022-08-16T17:14:33.709Z,2.58
2022-08-16T17:17:04.203Z,2.78
2022-08-16T17:19:31.620Z,2.60
2022-08-16T17:22:01.090Z,2.45
2022-08-16T17:24:32.002Z,2.78
2022-08-16T17:27:08.261Z,2.50
2022-08-16T17:29:35.461Z,2.40
2022-08-16T17:32:46.874Z,2.60
2022-08-16T17:35:00.626Z,2.50
2022-08-16T17:37:42.501Z,2.50
2022-08-16T17:40:30.187Z,2.70
2022-08-16T17:43:01.288Z,2.65
2022-08-16T17:45:28.365Z,2.95
2022-08-16T17:47:54.933Z,2.97
2022-08-16T17:50:22.808Z,2.70
2022-08-16T17:52:53.635Z,2.80
2022-08-16T17:55:28.607Z,2.90
2022-08-16T17:57:55.201Z,2.80
2022-08-16T18:00:23.254Z,2.90
2022-08-16T18:02:51.792Z,3.20
2022-08-16T18:05:20.300Z,2.90
2022-08-16T18:07:47.415Z,2.63
2022-08-16T18:10:32.711Z,3.10
2022-08-16T18:13:01.021Z,2.70
2022-08-16T18:15:28.211Z,3.10
2022-08-16T18:17:54.936Z,3.28
2022-08-16T18:20:41.351Z,2.70
2022-08-16T18:23:15.112Z,2.45
2022-08-16T18:25:47.000Z,3.10
2022-08-16T18:28:14.615Z,3.10
2022-08-16T18:30:41.500Z,3.20
2022-08-16T18:33:08.153Z,3.00
2022-08-16T18:35:34.960Z,2.80
2022-08-16T18:38:01.775Z,2.50
2022-08-16T18:40:28.822Z,3.17
2022-08-16T18:43:06.256Z,2.90
2022-08-16T18:45:36.957Z,2.80
2022-08-16T18:48:04.775Z,2.70
2022-08-16T18:50:58.482Z,2.53
2022-08-16T18:53:20.155Z,2.90
2022-08-16T18:55:48.282Z,2.83
2022-08-16T18:58:15.513Z,2.85
2022-08-16T19:00:55.944Z,2.80
2022-08-16T19:05:56.532Z,2.65
2022-08-16T19:08:23.272Z,2.60
2022-08-16T19:10:50.984Z,2.80
2022-08-16T19:13:22.988Z,2.65
2022-08-16T19:15:52.007Z,2.92
2022-08-16T19:18:19.451Z,2.80
2022-08-16T19:20:47.187Z,3.10
2022-08-16T19:23:17.752Z,3.13
2022-08-16T19:25:49.695Z,3.20
2022-08-16T19:28:57.697Z,3.30
2022-08-16T19:31:20.613Z,3.00
2022-08-16T19:33:53.754Z,2.95
2022-08-16T19:36:30.897Z,3.10
2022-08-16T19:38:58.855Z,2.95
2022-08-16T19:41:31.753Z,3.42
2022-08-16T19:43:58.233Z,2.95
2022-08-16T19:46:24.897Z,3.10
2022-08-16T19:48:51.934Z,3.13
2022-08-16T19:51:18.477Z,3.40
2022-08-16T19:53:45.059Z,3.22
2022-08-16T19:56:11.832Z,2.83
2022-08-16T19:58:50.993Z,2.97
2022-08-16T20:01:25.548Z,3.30
2022-08-16T20:03:52.092Z,3.08
2022-08-16T20:06:37.631Z,3.10
2022-08-16T20:09:05.165Z,3.00
2022-08-16T20:11:31.750Z,3.17
2022-08-16T20:13:59.380Z,3.50
2022-08-16T20:16:26.093Z,3.80
2022-08-16T20:18:52.643Z,3.85
2022-08-16T20:21:19.493Z,3.50
2022-08-16T20:23:46.233Z,3.90
2022-08-16T20:26:12.749Z,3.60
2022-08-16T20:28:53.947Z,3.63
2022-08-16T20:31:22.998Z,3.45
2022-08-16T20:33:50.450Z,3.92
2022-08-16T20:36:17.203Z,3.67
2022-08-16T20:38:46.877Z,3.47
2022-08-16T20:41:13.839Z,3.75
2022-08-16T20:43:40.383Z,3.10
2022-08-16T20:46:06.986Z,3.17
2022-08-16T20:48:33.516Z,3.53
2022-08-16T20:51:00.053Z,4.28
2022-08-16T20:53:26.619Z,3.38
2022-08-16T20:55:53.124Z,4.10
2022-08-16T20:58:19.672Z,4.10
2022-08-16T21:00:47.256Z,3.67
2022-08-16T21:03:14.120Z,3.58
2022-08-16T21:05:41.273Z,3.80
2022-08-16T21:08:26.858Z,3.67
2022-08-16T21:10:56.303Z,3.90
2022-08-16T21:13:25.338Z,3.90
2022-08-16T21:15:52.155Z,4.10
2022-08-16T21:18:18.658Z,3.92
2022-08-16T21:20:45.168Z,3.90
2022-08-16T21:23:11.732Z,4.00
2022-08-16T21:25:57.708Z,3.83
2022-08-16T21:28:41.999Z,3.55
2022-08-16T21:31:14.310Z,3.70
2022-08-16T21:33:40.945Z,3.42
2022-08-16T21:36:07.888Z,3.42
2022-08-16T21:38:34.783Z,3.65
2022-08-16T21:41:02.879Z,3.55
2022-08-16T21:43:32.682Z,3.50
2022-08-16T21:46:01.470Z,3.67
2022-08-16T21:48:35.119Z,3.85
2022-08-16T21:51:07.824Z,3.88
2022-08-16T21:53:35.118Z,3.70
2022-08-16T21:56:02.113Z,3.78
2022-08-16T21:58:29.422Z,3.60
2022-08-16T22:00:56.314Z,3.72
2022-08-16T22:03:23.525Z,4.38
2022-08-16T22:06:12.242Z,3.42
2022-08-16T22:08:45.615Z,4.00
2022-08-16T22:11:22.754Z,3.85
2022-08-16T22:13:57.885Z,3.63
2022-08-16T22:16:34.457Z,3.80
2022-08-16T22:19:01.393Z,3.50
2022-08-16T22:21:28.738Z,4.07
2022-08-16T22:23:57.394Z,3.88
2022-08-16T22:26:30.706Z,4.65
2022-08-16T22:28:59.413Z,4.15
2022-08-16T22:31:26.103Z,4.25
2022-08-16T22:33:52.635Z,4.20
2022-08-16T22:36:19.228Z,4.03
2022-08-16T22:38:55.981Z,5.35
2022-08-16T22:41:25.077Z,4.65
2022-08-16T22:43:52.341Z,4.45
2022-08-16T22:46:19.604Z,4.68
2022-08-16T22:48:46.633Z,3.95
2022-08-16T22:51:13.487Z,4.47
2022-08-16T22:53:40.034Z,4.25
2022-08-16T22:56:06.797Z,4.32
2022-08-16T22:58:36.317Z,4.25
2022-08-16T23:01:07.873Z,4.10
2022-08-16T23:03:34.747Z,4.43
2022-08-16T23:06:01.327Z,3.85
2022-08-16T23:08:39.168Z,4.05
2022-08-16T23:11:12.169Z,4.18
2022-08-16T23:13:52.795Z,4.65
2022-08-16T23:16:32.507Z,4.22
2022-08-16T23:19:00.564Z,3.75
2022-08-16T23:21:27.805Z,4.20
2022-08-16T23:23:54.331Z,4.22
2022-08-16T23:26:44.025Z,3.80
2022-08-16T23:29:07.542Z,4.00
2022-08-16T23:31:49.139Z,4.00
2022-08-16T23:34:15.954Z,4.03
2022-08-16T23:36:42.518Z,4.07
2022-08-16T23:39:09.058Z,4.25
2022-08-16T23:41:35.628Z,3.50
2022-08-16T23:44:02.147Z,3.63
2022-08-16T23:46:49.356Z,3.90
2022-08-16T23:50:02.333Z,4.07
2022-08-16T23:52:09.676Z,3.85
2022-08-16T23:54:36.423Z,3.80
2022-08-16T23:57:05.224Z,4.00
2022-08-16T23:59:34.467Z,4.47
